createdAt,value
2023-04-11T00:00:37.186Z,25.25
2023-04-11T00:03:03.968Z,24.55
2023-04-11T00:05:33.614Z,25.12
2023-04-11T00:08:00.711Z,25.02
2023-04-11T00:10:27.351Z,24.40
2023-04-11T00:12:57.518Z,25.27
2023-04-11T00:15:24.879Z,25.12
2023-04-11T00:17:51.488Z,23.85
2023-04-11T00:20:18.134Z,25.48
2023-04-11T00:22:44.742Z,28.62
2023-04-11T00:25:11.400Z,28.75
2023-04-11T00:27:37.997Z,27.48
2023-04-11T00:30:06.897Z,25.25
2023-04-11T00:32:34.138Z,26.80
2023-04-11T00:35:00.692Z,27.05
2023-04-11T00:37:27.315Z,25.48
2023-04-11T00:39:55.878Z,26.25
2023-04-11T00:42:22.534Z,28.33
2023-04-11T00:44:49.284Z,26.77
2023-04-11T00:47:16.074Z,25.05
2023-04-11T00:49:43.026Z,26.87
2023-04-11T00:52:09.917Z,27.35
2023-04-11T00:54:36.522Z,26.15
2023-04-11T00:57:05.745Z,27.27
2023-04-11T00:59:33.166Z,29.65
2023-04-11T01:02:00.632Z,28.60
2023-04-11T01:04:27.301Z,28.75
2023-04-11T01:07:04.194Z,23.35
2023-04-11T01:09:32.953Z,24.65
2023-04-11T01:12:01.608Z,26.02
2023-04-11T01:14:28.744Z,25.42
2023-04-11T01:16:56.727Z,22.40
2023-04-11T01:19:29.281Z,25.17
2023-04-11T01:21:57.927Z,24.02
2023-04-11T01:24:24.934Z,22.55
2023-04-11T01:26:52.175Z,24.85
2023-04-11T01:29:19.152Z,22.87
2023-04-11T01:31:45.942Z,24.63
2023-04-11T01:34:14.907Z,23.35
2023-04-11T01:36:42.615Z,22.27
2023-04-11T01:39:09.892Z,23.23
2023-04-11T01:41:37.475Z,23.65
2023-04-11T01:44:04.882Z,24.23
2023-04-11T01:46:32.125Z,21.80
2023-04-11T01:49:01.516Z,22.75
2023-04-11T01:51:28.437Z,24.50
2023-04-11T01:53:55.403Z,24.52
2023-04-11T01:56:22.312Z,26.70
2023-04-11T01:58:49.221Z,26.80
2023-04-11T02:01:21.775Z,24.35
2023-04-11T02:03:48.776Z,25.77
2023-04-11T02:06:16.212Z,26.75
2023-04-11T02:08:43.701Z,25.40
2023-04-11T02:11:10.863Z,26.02
2023-04-11T02:13:37.784Z,23.35
2023-04-11T02:16:15.051Z,24.10
2023-04-11T02:18:43.448Z,26.60
2023-04-11T02:21:10.718Z,26.08
2023-04-11T02:23:37.800Z,26.75
2023-04-11T02:26:07.582Z,25.95
2023-04-11T02:28:34.308Z,25.88
2023-04-11T02:31:00.965Z,26.27
2023-04-11T02:33:27.659Z,27.80
2023-04-11T02:35:54.424Z,28.02
2023-04-11T02:38:21.552Z,26.58
2023-04-11T02:40:48.269Z,26.45
2023-04-11T02:43:16.194Z,25.67
2023-04-11T02:45:42.724Z,25.65
2023-04-11T02:48:11.816Z,25.83
2023-04-11T02:50:40.981Z,23.52
2023-04-11T02:53:07.799Z,25.90
2023-04-11T02:55:35.078Z,28.90
2023-04-11T02:58:01.794Z,26.12
2023-04-11T03:00:29.312Z,23.50
2023-04-11T03:02:57.140Z,25.92
2023-04-11T03:05:23.802Z,25.25
2023-04-11T03:07:50.499Z,24.12
2023-04-11T03:10:17.087Z,25.95
2023-04-11T03:12:43.710Z,24.63
2023-04-11T03:15:10.680Z,26.23
2023-04-11T03:17:37.276Z,23.98
2023-04-11T03:20:07.216Z,24.10
2023-04-11T03:22:33.954Z,25.70
2023-04-11T03:25:02.993Z,28.40
2023-04-11T03:27:29.594Z,27.27
2023-04-11T03:29:56.221Z,28.15
2023-04-11T03:32:23.064Z,28.40
2023-04-11T03:34:50.814Z,32.35
2023-04-11T03:37:17.406Z,33.85
2023-04-11T03:39:43.971Z,29.02
2023-04-11T03:42:10.710Z,31.75
2023-04-11T03:44:37.311Z,33.97
2023-04-11T03:47:03.944Z,33.38
2023-04-11T03:49:30.690Z,32.08
2023-04-11T03:51:57.265Z,31.50
2023-04-11T03:54:23.846Z,33.75
2023-04-11T03:56:50.664Z,33.38
2023-04-11T03:59:17.296Z,34.08
2023-04-11T04:01:43.891Z,32.58
2023-04-11T04:04:10.674Z,34.22
2023-04-11T04:06:37.399Z,33.92
2023-04-11T04:09:04.273Z,33.80
2023-04-11T04:11:30.980Z,34.25
2023-04-11T04:13:57.832Z,31.10
2023-04-11T04:16:24.748Z,31.35
2023-04-11T04:18:51.344Z,32.90
2023-04-11T04:21:18.007Z,30.70
2023-04-11T04:23:50.066Z,29.92
2023-04-11T04:26:17.216Z,29.25
2023-04-11T04:28:46.052Z,29.42
2023-04-11T04:31:15.150Z,28.95
2023-04-11T04:33:42.956Z,29.70
2023-04-11T04:36:14.805Z,32.35
2023-04-11T04:38:42.222Z,31.00
2023-04-11T04:41:15.101Z,30.98
2023-04-11T04:43:42.640Z,29.55
2023-04-11T04:46:09.994Z,30.10
2023-04-11T04:48:36.804Z,31.10
2023-04-11T04:51:05.229Z,32.17
2023-04-11T04:53:34.766Z,30.50
2023-04-11T04:56:02.463Z,30.90
2023-04-11T04:58:29.328Z,30.45
2023-04-11T05:00:56.432Z,31.25
2023-04-11T05:03:23.627Z,29.02
2023-04-11T05:05:50.584Z,30.33
2023-04-11T05:08:20.769Z,35.22
2023-04-11T05:10:47.454Z,31.85
2023-04-11T05:13:14.168Z,28.17
2023-04-11T05:15:47.252Z,28.55
2023-04-11T05:20:40.361Z,30.90
2023-04-11T05:23:06.912Z,29.08
2023-04-11T05:25:33.468Z,27.08
2023-04-11T05:28:00.063Z,27.40
2023-04-11T05:30:26.721Z,24.42
2023-04-11T05:32:53.425Z,25.98
2023-04-11T05:35:20.056Z,25.23
2023-04-11T05:37:46.673Z,23.23
2023-04-11T05:40:13.352Z,21.90
2023-04-11T05:42:40.000Z,24.63
2023-04-11T05:45:07.252Z,22.65
2023-04-11T05:47:33.883Z,25.00
2023-04-11T05:50:00.494Z,22.75
2023-04-11T05:52:27.121Z,31.50
2023-04-11T05:54:53.668Z,23.30
2023-04-11T05:57:21.023Z,24.73
2023-04-11T05:59:49.977Z,24.63
2023-04-11T06:02:17.020Z,25.65
2023-04-11T06:04:43.854Z,26.10
2023-04-11T06:07:11.010Z,22.27
2023-04-11T06:09:37.576Z,25.00
2023-04-11T06:12:04.239Z,24.50
2023-04-11T06:14:31.020Z,24.20
2023-04-11T06:19:33.028Z,23.45
2023-04-11T06:21:59.608Z,24.08
2023-04-11T06:24:40.401Z,23.23
2023-04-11T06:27:10.903Z,23.52
2023-04-11T06:29:38.691Z,24.08
2023-04-11T06:32:06.160Z,24.05
2023-04-11T06:34:32.863Z,23.92
2023-04-11T06:36:59.606Z,24.73
2023-04-11T06:39:26.565Z,22.17
2023-04-11T06:41:53.166Z,27.05
2023-04-11T06:44:19.807Z,26.45
2023-04-11T06:46:46.613Z,22.17
2023-04-11T06:49:13.239Z,25.85
2023-04-11T06:51:39.797Z,21.27
2023-04-11T06:54:06.686Z,23.15
2023-04-11T06:56:35.930Z,25.77
2023-04-11T06:59:02.529Z,21.55
2023-04-11T07:01:35.715Z,19.95
2023-04-11T07:04:02.521Z,19.55
2023-04-11T07:06:29.619Z,20.42
2023-04-11T07:08:57.051Z,21.77
2023-04-11T07:11:23.976Z,22.62
2023-04-11T07:13:53.478Z,21.85
2023-04-11T07:16:20.220Z,23.83
2023-04-11T07:18:49.340Z,18.98
2023-04-11T07:21:16.146Z,16.20
2023-04-11T07:23:43.244Z,18.65
2023-04-11T07:26:11.083Z,19.23
2023-04-11T07:28:38.758Z,16.02
2023-04-11T07:31:08.042Z,17.40
2023-04-11T07:33:35.128Z,16.27
2023-04-11T07:36:01.775Z,16.77
2023-04-11T07:38:31.146Z,15.65
2023-04-11T07:41:00.499Z,17.30
2023-04-11T07:43:28.575Z,18.85
2023-04-11T07:45:57.052Z,19.40
2023-04-11T07:48:26.353Z,19.23
2023-04-11T07:50:54.188Z,15.48
2023-04-11T07:53:21.984Z,15.02
2023-04-11T07:55:48.692Z,15.25
2023-04-11T07:58:15.741Z,16.35
2023-04-11T08:00:42.301Z,17.05
2023-04-11T08:03:10.853Z,15.85
2023-04-11T08:05:37.901Z,17.90
2023-04-11T08:08:05.548Z,18.00
2023-04-11T08:10:32.271Z,17.75
2023-04-11T08:12:58.952Z,17.52
2023-04-11T08:15:26.527Z,19.55
2023-04-11T08:17:56.633Z,18.55
2023-04-11T08:20:24.607Z,19.98
2023-04-11T08:22:51.324Z,20.20
2023-04-11T08:25:25.624Z,24.35
2023-04-11T08:27:52.563Z,19.25
2023-04-11T08:30:19.246Z,18.50
2023-04-11T08:32:46.128Z,19.90
2023-04-11T08:35:12.757Z,19.05
2023-04-11T08:37:39.470Z,17.20
2023-04-11T08:40:07.125Z,16.23
2023-04-11T08:42:34.317Z,15.85
2023-04-11T08:45:08.520Z,15.93
2023-04-11T08:47:36.376Z,19.42
2023-04-11T08:50:04.252Z,17.37
2023-04-11T08:52:31.041Z,17.00
2023-04-11T08:54:57.641Z,20.83
2023-04-11T08:57:26.432Z,16.17
2023-04-11T09:00:00.297Z,17.85
2023-04-11T09:02:27.813Z,17.05
2023-04-11T09:04:55.098Z,18.92
2023-04-11T09:07:22.099Z,16.98
2023-04-11T09:09:48.725Z,15.07
2023-04-11T09:12:15.905Z,15.27
2023-04-11T09:14:42.634Z,16.35
2023-04-11T09:17:16.949Z,16.15
2023-04-11T09:19:45.060Z,15.50
2023-04-11T09:22:13.765Z,16.87
2023-04-11T09:24:40.692Z,17.10
2023-04-11T09:27:08.825Z,16.23
2023-04-11T09:29:41.114Z,15.40
2023-04-11T09:32:08.058Z,15.68
2023-04-11T09:34:37.770Z,18.15
2023-04-11T09:37:04.563Z,15.88
2023-04-11T09:39:32.675Z,14.43
2023-04-11T09:41:59.484Z,15.80
2023-04-11T09:44:38.524Z,13.90
2023-04-11T09:47:05.394Z,16.40
2023-04-11T09:49:34.373Z,16.30
2023-04-11T09:52:01.414Z,17.95
2023-04-11T09:54:28.884Z,15.65
2023-04-11T09:56:57.177Z,16.42
2023-04-11T09:59:26.787Z,18.75
2023-04-11T10:01:53.592Z,19.02
2023-04-11T10:04:20.580Z,18.62
2023-04-11T10:07:03.806Z,17.05
2023-04-11T10:11:58.105Z,18.98
2023-04-11T10:14:42.227Z,19.67
2023-04-11T10:17:20.089Z,18.17
2023-04-11T10:19:50.858Z,20.17
2023-04-11T10:22:43.505Z,19.17
2023-04-11T10:25:21.636Z,20.35
2023-04-11T10:28:01.016Z,18.75
2023-04-11T10:30:40.396Z,18.42
2023-04-11T10:33:11.569Z,21.42
2023-04-11T10:36:10.711Z,21.17
2023-04-11T10:38:43.472Z,25.98
2023-04-11T10:41:25.423Z,22.40
2023-04-11T10:43:52.862Z,20.40
2023-04-11T10:46:24.980Z,19.62
2023-04-11T10:49:05.193Z,21.12
2023-04-11T10:51:34.445Z,19.50
2023-04-11T10:54:01.891Z,20.70
2023-04-11T10:56:53.901Z,17.83
2023-04-11T10:59:32.611Z,21.92
2023-04-11T11:02:01.549Z,20.23
2023-04-11T11:04:32.564Z,20.02
2023-04-11T11:07:01.610Z,17.95
2023-04-11T11:09:28.926Z,21.55
2023-04-11T11:12:12.890Z,17.95
2023-04-11T11:14:43.789Z,17.55
2023-04-11T11:17:12.432Z,17.58
2023-04-11T11:19:45.005Z,15.93
2023-04-11T11:22:19.127Z,16.70
2023-04-11T11:24:45.810Z,15.80
2023-04-11T11:27:23.327Z,16.50
2023-04-11T11:29:50.519Z,14.55
2023-04-11T11:32:30.203Z,17.12
2023-04-11T11:34:57.725Z,15.15
2023-04-11T11:37:27.444Z,15.25
2023-04-11T11:39:54.254Z,14.70
2023-04-11T11:42:22.868Z,14.93
2023-04-11T11:44:49.496Z,15.45
2023-04-11T11:47:16.330Z,15.90
2023-04-11T11:49:52.911Z,15.77
2023-04-11T11:52:43.203Z,14.90
2023-04-11T11:55:18.902Z,14.25
2023-04-11T11:57:46.829Z,13.20
2023-04-11T12:00:14.981Z,14.80
2023-04-11T12:08:06.553Z,11.30
2023-04-11T12:10:53.154Z,13.27
2023-04-11T12:13:23.622Z,12.75
2023-04-11T12:15:57.412Z,11.98
2023-04-11T12:18:25.262Z,13.18
2023-04-11T12:20:52.335Z,13.85
2023-04-11T12:23:19.086Z,12.70
2023-04-11T12:25:46.397Z,13.02
2023-04-11T12:28:14.043Z,14.63
2023-04-11T12:30:40.930Z,13.88
2023-04-11T12:33:07.792Z,14.63
2023-04-11T12:35:34.904Z,13.70
2023-04-11T12:38:01.810Z,13.82
2023-04-11T12:40:31.826Z,14.48
2023-04-11T12:42:58.410Z,17.27
2023-04-11T12:45:25.920Z,15.57
2023-04-11T12:47:52.943Z,14.02
2023-04-11T12:50:19.648Z,14.18
2023-04-11T12:52:46.449Z,13.00
2023-04-11T12:55:15.850Z,13.15
2023-04-11T12:57:42.557Z,12.75
2023-04-11T13:00:18.783Z,12.20
2023-04-11T13:02:45.820Z,10.85
2023-04-11T13:05:15.313Z,11.98
2023-04-11T13:07:47.968Z,12.70
2023-04-11T13:52:22.922Z,9.23
2023-04-11T13:55:25.966Z,9.20
2023-04-11T13:57:55.745Z,10.52
2023-04-11T14:32:54.024Z,6.87
2023-04-11T14:35:20.784Z,7.87
2023-04-11T14:37:47.580Z,6.78
2023-04-11T14:40:14.200Z,6.45
2023-04-11T14:42:41.055Z,6.95
2023-04-11T14:45:08.396Z,7.70
2023-04-11T14:47:35.161Z,6.78
2023-04-11T14:50:01.849Z,5.55
2023-04-11T14:52:28.490Z,6.90
2023-04-11T14:54:55.760Z,8.38
2023-04-11T14:57:22.669Z,6.60
2023-04-11T14:59:50.130Z,7.28
2023-04-11T15:02:16.866Z,6.60
2023-04-11T15:04:43.563Z,8.68
2023-04-11T15:07:16.205Z,6.85
2023-04-11T15:09:43.160Z,9.50
2023-04-11T15:12:10.013Z,9.23
2023-04-11T15:14:36.960Z,11.82
2023-04-11T15:17:03.602Z,10.45
2023-04-11T15:19:30.172Z,11.15
2023-04-11T15:21:56.967Z,9.85
2023-04-11T15:24:23.763Z,10.18
2023-04-11T15:26:50.656Z,9.00
2023-04-11T15:29:17.393Z,11.25
2023-04-11T15:31:44.066Z,9.35
2023-04-11T15:34:13.827Z,10.70
2023-04-11T15:36:50.555Z,9.95
2023-04-11T15:39:17.154Z,9.75
2023-04-11T15:41:43.916Z,13.43
2023-04-11T15:44:10.909Z,12.15
2023-04-11T15:46:37.609Z,16.30
2023-04-11T15:49:04.268Z,13.25
2023-04-11T15:51:30.927Z,17.35
2023-04-11T15:53:57.862Z,11.90
2023-04-11T15:56:24.947Z,12.60
2023-04-11T15:58:51.585Z,17.70
2023-04-11T16:01:25.400Z,22.05
2023-04-11T16:04:04.209Z,21.27
2023-04-11T16:07:03.362Z,32.35
2023-04-11T16:09:30.146Z,16.37
2023-04-11T16:11:57.086Z,12.68
2023-04-11T16:14:25.036Z,9.80
2023-04-11T16:16:52.970Z,11.48
2023-04-11T16:19:19.760Z,12.30
2023-04-11T16:21:46.687Z,9.48
2023-04-11T16:24:13.324Z,8.70
2023-04-11T16:26:40.647Z,8.52
2023-04-11T16:29:07.309Z,6.95
2023-04-11T16:31:33.999Z,6.47
2023-04-11T16:34:04.092Z,11.05
2023-04-11T16:36:30.999Z,8.25
2023-04-11T16:38:57.668Z,7.62
2023-04-11T16:41:24.381Z,8.77
2023-04-11T16:43:51.123Z,8.70
2023-04-11T16:46:17.844Z,7.65
2023-04-11T16:48:44.600Z,10.18
2023-04-11T16:51:12.273Z,8.75
2023-04-11T16:53:41.786Z,6.75
2023-04-11T16:56:09.060Z,8.85
2023-04-11T16:58:35.693Z,9.10
2023-04-11T17:01:20.107Z,8.07
2023-04-11T17:03:48.286Z,8.88
2023-04-11T17:06:16.575Z,7.65
2023-04-11T17:09:01.713Z,10.75
2023-04-11T18:26:14.523Z,14.98
2023-04-11T18:28:41.166Z,11.98
2023-04-11T18:31:07.891Z,10.13
2023-04-11T18:33:36.993Z,8.70
2023-04-11T18:36:04.892Z,11.05
2023-04-11T18:42:55.945Z,8.43
2023-04-11T18:54:20.658Z,9.15
2023-04-11T18:57:01.924Z,9.00
2023-04-11T18:59:33.090Z,10.75
2023-04-11T19:02:01.845Z,10.00
2023-04-11T19:04:31.938Z,10.50
2023-04-11T19:07:01.809Z,10.73
2023-04-11T19:12:19.300Z,11.07
2023-04-11T19:14:46.118Z,9.90
2023-04-11T19:17:12.900Z,9.45
2023-04-11T19:19:39.948Z,10.43
2023-04-11T19:22:28.434Z,9.48
2023-04-11T19:28:29.364Z,8.90
2023-04-11T19:30:56.046Z,9.32
2023-04-11T19:33:27.319Z,9.32
2023-04-11T19:35:56.113Z,9.07
2023-04-11T19:38:33.934Z,8.18
2023-04-11T19:41:46.732Z,9.55
2023-04-11T19:44:23.212Z,8.93
2023-04-11T19:47:28.553Z,9.18
2023-04-11T19:58:07.666Z,9.32
2023-04-11T20:00:36.317Z,8.80
2023-04-11T20:03:03.118Z,8.77
2023-04-11T20:05:32.069Z,9.70
2023-04-11T20:07:58.720Z,9.15
2023-04-11T20:10:25.744Z,8.73
2023-04-11T20:13:11.995Z,8.48
2023-04-11T20:16:11.348Z,9.18
2023-04-11T20:18:38.151Z,10.73
2023-04-11T20:21:07.496Z,8.05
2023-04-11T20:23:39.679Z,8.52
2023-04-11T20:26:06.274Z,9.55
2023-04-11T20:28:36.564Z,7.97
2023-04-11T20:31:04.634Z,9.98
2023-04-11T20:33:31.882Z,8.65
2023-04-11T20:35:58.724Z,9.65
2023-04-11T20:38:47.345Z,6.32
2023-04-11T20:41:13.960Z,8.60
2023-04-11T20:44:04.499Z,6.53
2023-04-11T20:49:28.141Z,4.78
2023-04-11T20:51:55.138Z,4.03
2023-04-11T20:54:21.975Z,3.20
2023-04-11T20:56:48.637Z,3.17
2023-04-11T20:59:15.661Z,4.00
2023-04-11T21:07:43.278Z,2.58
2023-04-11T21:10:10.813Z,2.55
2023-04-11T21:12:37.935Z,2.22
2023-04-11T21:15:05.038Z,5.12
2023-04-11T21:17:34.078Z,4.12
2023-04-11T21:42:22.369Z,2.65
2023-04-11T21:44:48.910Z,3.33
2023-04-11T21:47:15.498Z,3.15
2023-04-11T21:49:42.152Z,2.35
2023-04-11T21:52:09.224Z,3.62
2023-04-11T21:54:36.137Z,2.58
2023-04-11T21:59:39.327Z,2.20
2023-04-11T22:02:06.739Z,2.65
2023-04-11T22:05:06.240Z,5.53
2023-04-11T22:07:38.489Z,2.17
2023-04-11T22:17:05.402Z,3.47
2023-04-11T22:19:35.108Z,4.07
